Time;durP1;ratioP1;P1;durP2;ratioP2;P2;SDS_P1;SDS_P2;PMS_P1;PMS_P2;Temp;Humidity;BMP_temperature;BMP_pressure;BME280_temperature;BME280_humidity;BME280_pressure;Samples;Min_cycle;Max_cycle;Signal;HPM_P1;HPM_P2
2023/06/21 03:14:51;;;;;;;30.50;28.23;;;20.90;99.90;;;;;;5780541;23;20490;-81
2023/06/21 03:17:17;;;;;;;31.17;28.83;;;20.90;99.90;;;;;;4915513;29;20469;-73
2023/06/21 03:19:44;;;;;;;30.43;28.20;;;20.90;99.90;;;;;;4915682;29;20457;-73
2023/06/21 03:22:11;;;;;;;29.53;27.30;;;21.00;99.90;;;;;;4915625;29;20505;-72
2023/06/21 03:24:38;;;;;;;29.53;27.53;;;21.00;99.90;;;;;;4915748;29;20458;-73
2023/06/21 03:27:05;;;;;;;28.27;26.47;;;21.00;99.90;;;;;;4915601;29;20450;-73
2023/06/21 03:29:33;;;;;;;28.43;26.50;;;21.00;99.90;;;;;;4915413;29;20458;-73
2023/06/21 03:32:01;;;;;;;28.87;26.90;;;21.00;99.90;;;;;;4915468;29;20455;-73
2023/06/21 03:34:28;;;;;;;29.40;27.60;;;21.00;99.90;;;;;;4915690;29;20837;-73
2023/06/21 03:36:55;;;;;;;29.00;27.10;;;21.00;99.90;;;;;;4915466;29;20547;-73
2023/06/21 03:39:22;;;;;;;28.63;26.77;;;21.20;99.90;;;;;;4915450;29;20510;-73
2023/06/21 03:41:49;;;;;;;30.03;27.83;;;21.30;99.90;;;;;;4915158;29;20865;-74
2023/06/21 03:44:16;;;;;;;31.83;29.53;;;21.30;99.90;;;;;;4909834;29;20478;-73
2023/06/21 03:46:42;;;;;;;28.80;26.67;;;21.40;99.90;;;;;;4915262;29;20451;-74
2023/06/21 03:49:10;;;;;;;32.10;29.80;;;21.60;99.90;;;;;;4915293;29;20983;-74
2023/06/21 03:51:37;;;;;;;30.60;28.20;;;21.70;99.90;;;;;;4915228;29;20469;-74
2023/06/21 03:54:04;;;;;;;29.43;27.53;;;21.90;99.90;;;;;;4915083;29;20948;-73
2023/06/21 03:56:31;;;;;;;29.93;27.93;;;22.10;99.90;;;;;;4914401;29;20461;-73
2023/06/21 03:58:57;;;;;;;29.10;27.33;;;22.10;99.90;;;;;;4915002;29;20463;-72
2023/06/21 04:01:25;;;;;;;30.53;28.33;;;22.10;99.90;;;;;;4914834;29;20486;-72
2023/06/21 04:03:51;;;;;;;35.20;32.80;;;22.00;99.90;;;;;;4915058;29;20466;-70
2023/06/21 04:06:19;;;;;;;42.33;39.40;;;21.90;99.90;;;;;;4915257;29;20462;-68
2023/06/21 04:08:47;;;;;;;43.07;39.63;;;21.60;99.90;;;;;;4914753;29;20964;-73
2023/06/21 04:11:14;;;;;;;43.57;40.43;;;21.30;99.90;;;;;;4914706;29;20451;-74
2023/06/21 04:13:41;;;;;;;43.10;39.83;;;21.00;99.90;;;;;;4914812;29;20482;-75
2023/06/21 04:16:07;;;;;;;45.57;42.07;;;20.80;99.90;;;;;;4914974;29;20494;-72
2023/06/21 04:18:34;;;;;;;46.33;42.93;;;20.70;99.90;;;;;;4914673;29;20856;-73
2023/06/21 04:21:04;;;;;;;46.20;42.23;;;20.80;99.90;;;;;;4914870;29;20516;-72
2023/06/21 04:23:32;;;;;;;46.20;42.80;;;20.80;99.90;;;;;;4914743;29;20877;-73
2023/06/21 04:25:58;;;;;;;44.10;40.87;;;20.80;99.90;;;;;;4914658;29;20454;-73
2023/06/21 04:28:25;;;;;;;43.90;40.40;;;20.70;99.90;;;;;;4914799;29;20458;-73
2023/06/21 04:30:52;;;;;;;43.80;40.57;;;20.50;99.90;;;;;;4914534;29;20454;-72
2023/06/21 04:33:19;;;;;;;42.87;39.87;;;20.50;99.90;;;;;;4914313;29;20450;-73
2023/06/21 04:35:46;;;;;;;43.77;40.67;;;20.40;99.90;;;;;;4914504;29;20466;-72
2023/06/21 04:38:13;;;;;;;45.83;42.10;;;20.50;99.90;;;;;;4914708;29;20446;-73
2023/06/21 04:40:41;;;;;;;43.07;39.97;;;20.50;99.90;;;;;;4914704;29;20557;-73
2023/06/21 04:43:08;;;;;;;44.07;40.57;;;20.50;99.90;;;;;;4914714;29;20847;-73
2023/06/21 04:45:35;;;;;;;43.60;40.63;;;20.60;99.90;;;;;;4914579;29;20508;-73
2023/06/21 04:48:04;;;;;;;44.60;41.37;;;20.60;99.90;;;;;;4914549;29;20459;-72
2023/06/21 04:50:31;;;;;;;42.23;39.53;;;20.70;99.90;;;;;;4914602;29;20462;-73
2023/06/21 04:52:59;;;;;;;41.37;38.77;;;20.80;99.90;;;;;;4909414;29;20497;-73
2023/06/21 04:55:26;;;;;;;41.40;38.50;;;20.90;99.90;;;;;;4914490;29;20459;-72
2023/06/21 04:57:55;;;;;;;39.73;37.53;;;21.10;99.90;;;;;;4914594;29;20454;-73
2023/06/21 05:00:22;;;;;;;40.53;38.13;;;21.30;99.90;;;;;;4914334;29;20454;-73
2023/06/21 05:02:49;;;;;;;36.87;34.57;;;21.50;99.90;;;;;;4914450;29;20497;-73
2023/06/21 05:05:15;;;;;;;36.97;34.90;;;21.80;99.90;;;;;;4914325;29;20799;-72
2023/06/21 05:07:42;;;;;;;37.30;35.10;;;22.00;99.90;;;;;;4913965;29;20469;-74
2023/06/21 05:10:10;;;;;;;36.27;34.17;;;22.30;99.90;;;;;;4917499;29;20827;-73
2023/06/21 05:12:37;;;;;;;31.80;29.73;;;22.60;99.90;;;;;;4917837;29;20453;-73
2023/06/21 05:15:06;;;;;;;31.10;29.50;;;22.80;99.90;;;;;;4917601;29;21003;-75
2023/06/21 05:17:32;;;;;;;30.33;28.50;;;23.10;99.90;;;;;;4917903;29;20971;-75
2023/06/21 05:19:59;;;;;;;27.30;25.67;;;23.40;99.90;;;;;;4917760;29;20461;-75
2023/06/21 05:22:26;;;;;;;25.27;24.00;;;23.40;99.90;;;;;;4917901;29;20500;-75
2023/06/21 05:24:52;;;;;;;25.70;24.00;;;23.40;99.90;;;;;;4917891;29;20454;-75
2023/06/21 05:27:19;;;;;;;23.77;22.33;;;23.30;99.90;;;;;;4917473;29;20466;-73
2023/06/21 05:29:46;;;;;;;23.53;22.30;;;23.40;99.90;;;;;;4917762;29;20826;-74
2023/06/21 05:32:15;;;;;;;26.30;24.20;;;23.50;99.90;;;;;;4917509;29;20743;-75
2023/06/21 05:34:41;;;;;;;23.43;22.00;;;23.60;99.90;;;;;;4917647;29;20864;-74
2023/06/21 05:37:08;;;;;;;24.87;23.00;;;23.70;99.90;;;;;;4917629;29;20473;-74
2023/06/21 05:39:35;;;;;;;24.23;22.67;;;23.80;99.90;;;;;;4917574;29;20465;-75
2023/06/21 05:42:01;;;;;;;23.47;22.20;;;23.60;99.90;;;;;;4917227;29;21023;-74
2023/06/21 05:44:28;;;;;;;23.30;21.50;;;23.90;99.90;;;;;;4917166;29;20462;-75
2023/06/21 05:46:55;;;;;;;20.87;19.77;;;24.00;99.90;;;;;;4917417;29;20553;-75
2023/06/21 05:49:23;;;;;;;20.10;18.73;;;24.20;99.90;;;;;;4917438;29;20462;-75
2023/06/21 05:51:49;;;;;;;23.70;22.20;;;24.20;99.90;;;;;;4917280;29;20485;-74
2023/06/21 05:54:16;;;;;;;21.00;19.70;;;24.30;99.90;;;;;;4917204;29;20458;-75
2023/06/21 05:56:43;;;;;;;20.40;19.30;;;24.50;99.90;;;;;;4917140;29;20450;-74
2023/06/21 05:59:10;;;;;;;19.80;18.67;;;24.60;99.90;;;;;;4917262;29;20799;-75
2023/06/21 06:01:36;;;;;;;21.53;19.93;;;24.80;99.90;;;;;;4917214;29;20931;-75
2023/06/21 06:04:03;;;;;;;22.60;21.20;;;25.10;99.90;;;;;;4917061;29;20988;-74
2023/06/21 06:06:38;;;;;;;23.40;21.23;;;25.30;99.90;;;;;;4915130;29;20466;-75
2023/06/21 06:09:05;;;;;;;19.50;18.53;;;25.50;99.90;;;;;;4916810;29;20454;-75
2023/06/21 06:11:32;;;;;;;22.63;20.83;;;25.60;99.90;;;;;;4916697;29;20450;-75
2023/06/21 06:13:58;;;;;;;20.63;19.33;;;25.90;99.90;;;;;;4916485;29;20490;-75
2023/06/21 06:16:25;;;;;;;20.57;19.27;;;26.10;99.90;;;;;;4916476;29;20490;-75
2023/06/21 06:18:52;;;;;;;22.20;20.70;;;25.90;99.90;;;;;;4916444;29;20458;-75
2023/06/21 06:21:21;;;;;;;24.07;22.00;;;25.50;99.90;;;;;;4915921;29;20591;-74
2023/06/21 06:23:51;;;;;;;24.77;22.83;;;25.20;99.90;;;;;;4916468;29;20468;-74
2023/06/21 06:26:22;;;;;;;22.20;21.00;;;24.80;99.90;;;;;;4916311;29;20814;-74
2023/06/21 06:28:49;;;;;;;22.80;21.30;;;25.00;99.90;;;;;;4916325;29;20517;-75
2023/06/21 06:31:19;;;;;;;22.37;20.97;;;25.40;99.90;;;;;;4916281;29;20462;-75
2023/06/21 06:33:45;;;;;;;23.17;21.57;;;25.80;99.90;;;;;;4916247;29;20451;-75
2023/06/21 06:36:12;;;;;;;22.83;21.37;;;25.60;99.90;;;;;;4916226;29;20459;-75
2023/06/21 06:38:39;;;;;;;22.07;20.77;;;25.30;99.90;;;;;;4916223;29;20458;-74
2023/06/21 06:41:07;;;;;;;22.30;20.57;;;25.20;99.90;;;;;;4915997;29;20810;-75
2023/06/21 06:43:34;;;;;;;21.83;20.27;;;25.30;99.90;;;;;;4915916;29;20446;-75
2023/06/21 06:46:01;;;;;;;22.47;21.07;;;25.90;99.90;;;;;;4915955;29;20453;-74
2023/06/21 06:48:28;;;;;;;20.80;19.50;;;26.50;99.90;;;;;;4915970;29;20786;-75
2023/06/21 06:50:54;;;;;;;21.57;20.37;;;27.10;99.90;;;;;;4916034;29;20473;-75
2023/06/21 06:53:21;;;;;;;22.17;20.90;;;27.30;99.90;;;;;;4915714;29;20944;-74
2023/06/21 06:55:48;;;;;;;22.03;20.47;;;27.30;99.90;;;;;;4915844;29;20446;-75
2023/06/21 06:58:16;;;;;;;22.13;20.73;;;27.30;99.90;;;;;;4915720;29;20823;-73
2023/06/21 07:00:42;;;;;;;22.10;20.80;;;27.30;99.90;;;;;;4915046;29;20562;-75
2023/06/21 07:03:09;;;;;;;23.77;22.20;;;27.30;99.90;;;;;;4914623;29;20493;-74
2023/06/21 07:05:36;;;;;;;23.50;21.90;;;27.50;99.90;;;;;;4915362;29;20453;-74
2023/06/21 07:08:03;;;;;;;21.03;19.70;;;27.90;99.90;;;;;;4915365;29;20498;-75
2023/06/21 07:10:30;;;;;;;19.70;18.40;;;28.70;99.90;;;;;;4915625;29;20953;-77
2023/06/21 07:12:59;;;;;;;22.87;21.37;;;29.80;99.00;;;;;;4915298;29;20478;-75
2023/06/21 07:15:27;;;;;;;21.27;19.97;;;30.70;97.20;;;;;;4915264;29;20486;-75
2023/06/21 07:17:54;;;;;;;22.47;20.90;;;31.60;94.50;;;;;;4915410;29;20454;-74
2023/06/21 07:20:21;;;;;;;21.47;20.07;;;31.90;93.80;;;;;;4915330;29;20458;-74
2023/06/21 07:22:47;;;;;;;20.60;19.50;;;32.40;92.80;;;;;;4915378;29;20497;-75
2023/06/21 07:25:15;;;;;;;21.83;20.53;;;32.40;91.80;;;;;;4915156;29;20457;-75
2023/06/21 07:27:42;;;;;;;20.63;19.53;;;32.60;91.00;;;;;;4914985;29;20459;-75
2023/06/21 07:30:09;;;;;;;21.00;19.80;;;33.20;90.20;;;;;;4913750;29;20462;-75
2023/06/21 07:32:37;;;;;;;19.63;18.53;;;32.80;90.10;;;;;;4914695;29;20454;-75
2023/06/21 07:35:05;;;;;;;21.27;19.87;;;32.80;90.40;;;;;;4915183;29;20454;-75
2023/06/21 07:37:33;;;;;;;21.13;20.10;;;33.50;88.40;;;;;;4914778;29;20981;-75
2023/06/21 07:40:00;;;;;;;20.57;19.53;;;34.10;86.10;;;;;;4914885;29;20514;-75
2023/06/21 07:42:26;;;;;;;20.43;19.13;;;34.50;83.80;;;;;;4914846;29;20490;-75
2023/06/21 07:44:54;;;;;;;19.93;18.93;;;34.50;82.70;;;;;;4914957;29;20934;-76
2023/06/21 07:47:22;;;;;;;20.40;19.50;;;34.30;81.40;;;;;;4914712;29;20462;-75
2023/06/21 07:49:50;;;;;;;19.70;18.53;;;34.00;83.60;;;;;;4914824;29;20541;-74
2023/06/21 07:52:17;;;;;;;20.23;19.33;;;33.60;85.40;;;;;;4914617;29;20461;-76
2023/06/21 07:54:47;;;;;;;20.50;19.40;;;33.60;85.20;;;;;;4914673;29;20454;-76
2023/06/21 07:57:14;;;;;;;20.33;19.23;;;33.20;86.00;;;;;;4914058;29;20462;-76
2023/06/21 07:59:41;;;;;;;24.57;22.20;;;32.70;86.90;;;;;;4914068;29;20497;-75
2023/06/21 08:02:09;;;;;;;22.17;20.93;;;32.00;90.80;;;;;;4914684;29;20489;-77
2023/06/21 08:04:36;;;;;;;21.33;20.23;;;30.80;93.60;;;;;;4914837;29;20459;-77
2023/06/21 08:07:04;;;;;;;21.53;20.20;;;29.80;95.50;;;;;;4914791;29;20454;-76
2023/06/21 08:09:31;;;;;;;19.87;18.77;;;29.60;97.50;;;;;;4914826;29;20473;-76
2023/06/21 08:11:59;;;;;;;19.87;18.97;;;29.90;97.10;;;;;;4915032;29;20813;-75
2023/06/21 08:14:26;;;;;;;20.13;19.03;;;30.30;95.70;;;;;;4914630;29;20984;-75
2023/06/21 08:16:53;;;;;;;21.50;20.20;;;31.20;93.70;;;;;;4915047;29;20458;-76
2023/06/21 08:19:19;;;;;;;22.20;20.80;;;31.70;92.50;;;;;;4914914;29;20462;-76
2023/06/21 08:21:46;;;;;;;21.33;20.03;;;31.60;92.00;;;;;;4914675;29;20454;-76
2023/06/21 08:24:14;;;;;;;20.27;19.07;;;31.60;92.40;;;;;;4914904;29;20924;-76
2023/06/21 08:26:41;;;;;;;20.60;19.50;;;31.40;92.30;;;;;;4914825;29;20451;-76
2023/06/21 08:29:07;;;;;;;21.03;19.50;;;31.00;92.60;;;;;;4914908;29;20446;-76
2023/06/21 08:31:34;;;;;;;19.43;18.23;;;30.50;93.40;;;;;;4914838;29;20459;-76
2023/06/21 08:34:01;;;;;;;20.00;18.83;;;30.10;94.60;;;;;;4914520;29;20458;-76
2023/06/21 08:36:27;;;;;;;19.17;18.27;;;29.80;94.80;;;;;;4914622;29;20459;-76
2023/06/21 08:38:54;;;;;;;19.63;18.40;;;29.40;95.40;;;;;;4914474;29;20455;-76
2023/06/21 08:41:22;;;;;;;21.77;20.47;;;29.10;96.10;;;;;;4914646;29;20453;-76
2023/06/21 08:43:49;;;;;;;19.30;18.20;;;28.60;97.80;;;;;;4916953;29;20830;-75
2023/06/21 08:46:16;;;;;;;20.33;19.13;;;28.00;99.90;;;;;;4918268;29;20496;-76
2023/06/21 08:48:47;;;;;;;22.37;20.87;;;27.40;99.90;;;;;;4918238;29;20967;-75
2023/06/21 08:51:15;;;;;;;20.60;19.30;;;27.30;99.90;;;;;;4918361;29;20450;-76
2023/06/21 08:53:47;;;;;;;19.20;18.10;;;27.30;99.90;;;;;;4918220;29;20469;-76
2023/06/21 08:56:18;;;;;;;19.50;18.03;;;27.20;99.90;;;;;;4918248;29;20537;-75
2023/06/21 08:58:51;;;;;;;20.00;18.70;;;27.20;99.90;;;;;;4918213;29;20462;-75
2023/06/21 09:01:21;;;;;;;18.13;16.93;;;27.00;99.90;;;;;;4918185;29;20461;-75
2023/06/21 09:03:57;;;;;;;23.33;22.10;;;26.70;99.90;;;;;;4918245;29;20801;-74
2023/06/21 09:06:25;;;;;;;25.87;24.50;;;26.20;99.90;;;;;;4918219;29;20477;-73
2023/06/21 09:08:53;;;;;;;32.63;30.83;;;25.90;99.90;;;;;;4918032;29;20458;-75
2023/06/21 09:11:22;;;;;;;34.70;32.70;;;25.40;99.90;;;;;;4917881;29;20496;-76
2023/06/21 09:13:50;;;;;;;38.73;36.17;;;24.80;99.90;;;;;;4917710;29;20515;-74
2023/06/21 09:16:17;;;;;;;42.00;39.17;;;24.30;99.90;;;;;;4917721;29;20494;-75
2023/06/21 09:18:44;;;;;;;43.73;40.80;;;23.90;99.90;;;;;;4917956;29;20460;-76
2023/06/21 09:21:13;;;;;;;43.63;40.63;;;23.50;99.90;;;;;;4918005;29;20458;-78
2023/06/21 09:23:40;;;;;;;43.10;40.10;;;23.10;99.90;;;;;;4920482;29;20924;-82
2023/06/21 09:26:08;;;;;;;45.70;42.00;;;22.80;99.90;;;;;;4917776;29;20976;-83
2023/06/21 09:28:35;;;;;;;46.37;42.90;;;22.50;99.90;;;;;;4917662;29;20457;-82
2023/06/21 09:31:03;;;;;;;48.90;45.23;;;22.40;99.90;;;;;;4917754;29;20467;-83
2023/06/21 09:33:29;;;;;;;49.93;45.90;;;22.40;99.90;;;;;;4918386;29;20465;-87
2023/06/21 09:35:57;;;;;;;50.87;46.93;;;22.20;99.90;;;;;;4918113;29;20451;-84
2023/06/21 09:38:25;;;;;;;48.27;44.67;;;22.00;99.90;;;;;;4917909;29;20553;-82
2023/06/21 09:40:52;;;;;;;52.40;48.90;;;22.00;99.90;;;;;;4916360;29;20450;-82
2023/06/21 09:43:20;;;;;;;53.50;49.80;;;21.80;99.90;;;;;;4917179;29;21008;-80
2023/06/21 09:45:59;;;;;;;51.47;47.93;;;21.70;99.90;;;;;;4917155;29;20489;-78
2023/06/21 09:48:27;;;;;;;49.80;46.30;;;21.60;99.90;;;;;;4917469;29;20489;-75
2023/06/21 09:50:55;;;;;;;49.93;46.63;;;21.50;99.90;;;;;;4917064;29;20463;-76
2023/06/21 09:53:24;;;;;;;50.50;47.10;;;21.40;99.90;;;;;;4917170;29;20497;-77
2023/06/21 09:55:50;;;;;;;50.50;47.00;;;21.50;99.90;;;;;;4916578;29;20493;-79
2023/06/21 09:58:17;;;;;;;55.50;51.63;;;21.50;99.90;;;;;;4917161;29;20450;-79
2023/06/21 10:00:44;;;;;;;54.20;50.50;;;21.50;99.90;;;;;;4916926;29;20458;-79
2023/06/21 10:03:11;;;;;;;59.03;55.23;;;21.50;99.90;;;;;;4917005;29;20498;-80
2023/06/21 10:05:54;;;;;;;56.97;52.87;;;21.60;99.90;;;;;;4916875;29;20492;-80
2023/06/21 10:08:27;;;;;;;59.33;55.00;;;21.70;99.90;;;;;;4916825;29;20497;-79
2023/06/21 10:10:54;;;;;;;59.63;55.03;;;21.80;99.90;;;;;;4916887;29;20462;-80
2023/06/21 10:13:27;;;;;;;57.83;53.67;;;21.80;99.90;;;;;;4916471;29;20913;-79
2023/06/21 10:15:55;;;;;;;57.73;52.63;;;21.80;99.90;;;;;;4916275;29;20478;-78
2023/06/21 10:18:22;;;;;;;57.80;53.67;;;21.70;99.90;;;;;;4916768;29;20928;-80
2023/06/21 10:20:55;;;;;;;57.53;53.73;;;21.80;99.90;;;;;;4916693;29;20545;-77
2023/06/21 10:23:23;;;;;;;54.97;51.20;;;21.70;99.90;;;;;;4916406;29;20581;-79
2023/06/21 10:25:51;;;;;;;55.40;51.60;;;21.70;99.90;;;;;;4916524;29;20486;-78
2023/06/21 10:28:20;;;;;;;56.70;52.60;;;21.70;99.90;;;;;;4916255;29;20457;-78
2023/06/21 10:30:51;;;;;;;55.27;51.13;;;21.70;99.90;;;;;;4916385;29;20474;-79
2023/06/21 10:33:19;;;;;;;53.63;49.57;;;21.70;99.90;;;;;;4916334;29;20439;-79
2023/06/21 10:35:48;;;;;;;56.27;51.80;;;21.70;99.90;;;;;;4916607;29;20461;-79
2023/06/21 10:38:24;;;;;;;56.00;52.20;;;21.70;99.90;;;;;;4916750;29;20450;-78
2023/06/21 10:40:54;;;;;;;53.80;49.83;;;21.60;99.90;;;;;;4916476;29;20465;-78
2023/06/21 10:43:21;;;;;;;55.53;51.53;;;21.70;99.90;;;;;;4914810;29;20497;-80
2023/06/21 10:45:49;;;;;;;55.60;51.40;;;21.70;99.90;;;;;;4916602;29;20497;-81
2023/06/21 10:48:16;;;;;;;57.47;53.17;;;21.80;99.90;;;;;;4916184;29;20465;-82
2023/06/21 10:50:44;;;;;;;58.87;54.67;;;21.80;99.90;;;;;;4916308;29;20877;-83
2023/06/21 10:53:13;;;;;;;63.63;58.90;;;22.00;99.90;;;;;;4916338;29;20466;-83
2023/06/21 10:55:42;;;;;;;63.93;59.13;;;22.10;99.90;;;;;;4916252;29;20458;-83
2023/06/21 10:58:08;;;;;;;61.67;57.57;;;22.40;99.90;;;;;;4916051;29;20480;-82
2023/06/21 11:00:35;;;;;;;61.73;57.13;;;22.40;99.90;;;;;;4916191;29;20490;-81
2023/06/21 11:03:02;;;;;;;56.13;52.30;;;22.50;99.90;;;;;;4916155;29;20533;-80
2023/06/21 11:05:31;;;;;;;56.60;52.80;;;22.70;99.90;;;;;;4915950;29;20955;-78
2023/06/21 11:07:59;;;;;;;50.53;47.23;;;23.20;99.90;;;;;;4916118;29;20501;-77
2023/06/21 11:10:31;;;;;;;46.83;43.80;;;23.30;99.90;;;;;;4916244;29;20454;-78
2023/06/21 11:12:59;;;;;;;41.93;39.20;;;23.80;99.90;;;;;;4915905;29;20454;-78
2023/06/21 11:15:27;;;;;;;36.93;34.53;;;24.60;99.90;;;;;;4915825;29;20482;-77
2023/06/21 11:18:00;;;;;;;36.43;33.83;;;25.30;99.90;;;;;;4916119;29;20941;-77
2023/06/21 11:20:27;;;;;;;32.13;29.70;;;25.80;99.90;;;;;;4915934;29;20454;-75
2023/06/21 11:22:58;;;;;;;29.00;27.00;;;26.20;99.90;;;;;;4916004;29;20451;-75
2023/06/21 11:25:25;;;;;;;25.33;23.73;;;26.40;99.90;;;;;;4915903;29;20466;-76
2023/06/21 11:28:22;;;;;;;28.43;26.50;;;26.40;99.90;;;;;;4915881;29;20959;-76
2023/06/21 11:31:08;;;;;;;29.57;27.70;;;26.80;99.90;;;;;;4915731;29;20458;-77
2023/06/21 11:33:46;;;;;;;28.30;26.13;;;27.50;99.90;;;;;;4915589;29;20450;-77
2023/06/21 11:36:13;;;;;;;26.60;25.00;;;27.90;99.90;;;;;;4915596;29;20835;-77
2023/06/21 11:38:49;;;;;;;26.53;24.80;;;28.10;99.90;;;;;;4915725;29;20470;-78
2023/06/21 11:41:57;;;;;;;27.87;25.87;;;28.50;99.90;;;;;;4915515;29;20454;-78
2023/06/21 11:44:27;;;;;;;24.80;23.20;;;28.80;99.90;;;;;;4915404;29;20526;-79
2023/06/21 11:47:17;;;;;;;24.53;22.93;;;28.70;99.90;;;;;;4915536;29;20581;-79
2023/06/21 11:49:50;;;;;;;23.70;22.00;;;29.70;99.90;;;;;;4915376;29;20454;-79
2023/06/21 11:52:22;;;;;;;26.17;24.57;;;30.60;99.90;;;;;;4915127;29;20450;-78
2023/06/21 11:54:49;;;;;;;26.40;24.40;;;30.50;99.90;;;;;;4915511;29;20463;-77
2023/06/21 11:57:16;;;;;;;25.43;23.83;;;30.20;99.90;;;;;;4915019;29;20505;-76
2023/06/21 11:59:45;;;;;;;28.03;25.50;;;30.60;99.90;;;;;;4915019;29;20466;-76
2023/06/21 12:02:13;;;;;;;24.57;22.77;;;31.00;99.90;;;;;;4915186;29;20862;-76
2023/06/21 12:04:41;;;;;;;25.00;23.30;;;31.20;99.90;;;;;;4915254;29;20498;-76
2023/06/21 12:07:09;;;;;;;23.33;21.90;;;32.80;98.60;;;;;;4915249;29;20465;-76
2023/06/21 12:09:36;;;;;;;23.70;22.37;;;34.90;93.50;;;;;;4914917;29;20878;-75
2023/06/21 12:12:03;;;;;;;23.07;21.70;;;34.50;91.60;;;;;;4914962;29;20449;-75
2023/06/21 12:14:30;;;;;;;22.20;20.97;;;34.30;91.10;;;;;;4914350;29;20474;-76
2023/06/21 12:16:59;;;;;;;24.40;22.70;;;34.00;91.90;;;;;;4914627;29;20474;-75
2023/06/21 12:19:26;;;;;;;25.40;23.97;;;33.80;91.90;;;;;;4915011;29;20458;-75
2023/06/21 12:22:00;;;;;;;25.13;23.43;;;32.50;93.40;;;;;;4915109;29;20478;-75
2023/06/21 12:24:27;;;;;;;21.77;20.70;;;31.40;94.40;;;;;;4915025;29;20525;-75
2023/06/21 12:26:55;;;;;;;22.77;21.23;;;30.70;96.20;;;;;;4915042;29;20461;-75
2023/06/21 12:29:22;;;;;;;21.70;20.20;;;30.20;97.70;;;;;;4915114;29;20458;-76
2023/06/21 12:31:49;;;;;;;22.83;21.60;;;30.80;97.80;;;;;;4915023;29;20829;-75
2023/06/21 12:34:18;;;;;;;23.53;22.07;;;32.00;95.70;;;;;;4915271;29;20454;-75
2023/06/21 12:36:45;;;;;;;22.20;20.90;;;32.80;93.20;;;;;;4915056;29;20829;-75
2023/06/21 12:39:14;;;;;;;21.27;20.07;;;33.80;91.30;;;;;;4914854;29;20494;-75
2023/06/21 12:41:42;;;;;;;21.27;20.20;;;35.00;88.50;;;;;;4914845;29;20505;-75
2023/06/21 12:44:19;;;;;;;22.23;21.20;;;35.60;85.70;;;;;;4914832;29;20502;-75
2023/06/21 12:46:46;;;;;;;23.70;22.40;;;36.20;85.20;;;;;;4914790;29;20477;-75
2023/06/21 12:49:14;;;;;;;22.47;21.17;;;36.70;78.90;;;;;;4914839;29;20822;-75
2023/06/21 12:51:43;;;;;;;22.10;21.00;;;37.10;77.10;;;;;;4914774;29;20526;-75
2023/06/21 12:54:12;;;;;;;23.50;22.27;;;38.00;73.80;;;;;;4909718;29;20478;-75
2023/06/21 12:56:41;;;;;;;22.93;21.93;;;38.80;71.60;;;;;;4914881;29;20454;-75
2023/06/21 12:59:08;;;;;;;22.40;21.07;;;38.10;70.10;;;;;;4914715;29;20546;-75
2023/06/21 13:01:35;;;;;;;24.23;22.83;;;36.50;75.00;;;;;;4914541;29;20462;-76
2023/06/21 13:04:06;;;;;;;21.73;20.47;;;36.00;75.10;;;;;;4914631;29;20493;-74
2023/06/21 13:06:32;;;;;;;24.07;22.63;;;35.90;77.10;;;;;;4914616;29;20461;-75
2023/06/21 13:09:00;;;;;;;23.87;22.67;;;36.60;77.30;;;;;;4914670;29;20466;-76
2023/06/21 13:11:27;;;;;;;22.83;21.40;;;37.10;73.50;;;;;;4914694;29;20462;-75
2023/06/21 13:13:54;;;;;;;23.10;21.90;;;37.00;73.30;;;;;;4914433;29;20481;-76
2023/06/21 13:16:21;;;;;;;21.53;20.53;;;36.40;75.20;;;;;;4914384;29;20497;-76
2023/06/21 13:18:48;;;;;;;24.40;23.07;;;37.20;73.50;;;;;;4914741;29;20450;-75
2023/06/21 13:21:17;;;;;;;23.67;22.47;;;38.30;68.10;;;;;;4914237;29;20486;-75
2023/06/21 13:23:45;;;;;;;23.03;21.83;;;38.60;66.60;;;;;;4914438;29;20493;-76
2023/06/21 13:26:14;;;;;;;24.17;22.90;;;38.00;68.80;;;;;;4914255;29;20466;-75
2023/06/21 13:28:40;;;;;;;22.93;21.50;;;38.40;67.10;;;;;;4914249;29;20549;-75
2023/06/21 13:31:07;;;;;;;22.70;21.53;;;38.80;65.90;;;;;;4917067;29;20793;-76
2023/06/21 13:33:34;;;;;;;23.33;22.07;;;38.50;65.90;;;;;;4917119;29;20458;-75
2023/06/21 13:36:01;;;;;;;24.20;22.60;;;37.30;69.10;;;;;;4917831;29;20661;-74
2023/06/21 13:38:31;;;;;;;21.70;20.30;;;36.50;70.50;;;;;;4917721;29;20459;-75
2023/06/21 13:40:58;;;;;;;23.70;22.10;;;35.00;75.90;;;;;;4917730;29;20492;-75
2023/06/21 13:43:28;;;;;;;22.13;20.87;;;33.70;78.10;;;;;;4917617;29;20458;-76
2023/06/21 13:45:54;;;;;;;21.50;20.30;;;32.70;82.80;;;;;;4917526;29;20462;-76
2023/06/21 13:48:21;;;;;;;21.90;20.57;;;32.30;86.80;;;;;;4917580;29;20461;-75
2023/06/21 13:50:48;;;;;;;21.50;20.20;;;32.30;86.40;;;;;;4917472;29;20469;-76
2023/06/21 13:53:15;;;;;;;22.90;21.50;;;32.80;86.40;;;;;;4917327;29;20459;-75
2023/06/21 13:55:41;;;;;;;22.43;21.23;;;33.10;84.80;;;;;;4917484;29;20451;-75
2023/06/21 13:58:08;;;;;;;20.67;19.67;;;33.40;84.10;;;;;;4917379;29;20503;-75
2023/06/21 14:00:36;;;;;;;21.30;19.87;;;34.20;80.90;;;;;;4922300;29;20457;-76
2023/06/21 14:03:03;;;;;;;21.90;20.80;;;33.20;83.40;;;;;;4917236;29;20454;-75
2023/06/21 14:05:30;;;;;;;22.23;20.83;;;33.10;82.60;;;;;;4917152;29;20489;-75
2023/06/21 14:07:56;;;;;;;22.10;20.70;;;33.10;82.10;;;;;;4928845;29;20561;-75
2023/06/21 14:10:23;;;;;;;21.80;20.50;;;32.60;84.50;;;;;;4936032;29;20476;-75
2023/06/21 14:12:50;;;;;;;21.03;19.93;;;32.30;85.40;;;;;;4925084;29;20937;-75
2023/06/21 14:15:17;;;;;;;21.50;20.13;;;32.40;85.60;;;;;;4926467;29;20493;-76
2023/06/21 14:17:45;;;;;;;20.47;18.97;;;32.80;84.40;;;;;;4926334;29;20454;-75
2023/06/21 14:20:13;;;;;;;19.70;18.70;;;32.90;82.70;;;;;;4925067;29;20447;-75
2023/06/21 14:22:39;;;;;;;19.87;18.67;;;31.90;84.60;;;;;;4926329;29;20955;-75
2023/06/21 14:25:09;;;;;;;20.90;19.90;;;31.50;87.90;;;;;;4926549;29;20493;-75
2023/06/21 14:27:35;;;;;;;20.77;19.67;;;31.40;88.30;;;;;;4922644;29;20463;-76
2023/06/21 14:30:04;;;;;;;20.30;19.10;;;31.60;87.50;;;;;;4925736;29;20454;-76
2023/06/21 14:32:31;;;;;;;20.63;19.43;;;31.90;88.20;;;;;;4921287;29;20470;-75
2023/06/21 14:35:00;;;;;;;19.80;18.70;;;32.70;85.30;;;;;;4925151;29;20933;-75
2023/06/21 14:37:27;;;;;;;19.30;18.40;;;33.10;82.30;;;;;;4925337;29;20457;-75
2023/06/21 14:39:54;;;;;;;20.97;19.93;;;33.60;81.80;;;;;;4926729;29;20814;-75
2023/06/21 14:42:22;;;;;;;19.50;18.40;;;34.00;80.80;;;;;;4925204;29;20443;-75
2023/06/21 14:44:49;;;;;;;21.67;20.33;;;34.30;79.40;;;;;;4924614;29;20542;-75
2023/06/21 14:47:16;;;;;;;21.40;20.10;;;33.90;80.40;;;;;;4926259;29;20748;-75
2023/06/21 14:49:43;;;;;;;22.07;20.83;;;34.30;79.90;;;;;;4925682;29;20458;-75
2023/06/21 14:52:11;;;;;;;20.40;19.27;;;34.10;79.80;;;;;;4924552;29;20949;-76
2023/06/21 14:54:39;;;;;;;20.87;19.67;;;33.80;80.50;;;;;;4925812;29;20442;-76
2023/06/21 14:57:08;;;;;;;20.77;19.50;;;33.10;81.60;;;;;;4925624;29;20486;-75
2023/06/21 14:59:35;;;;;;;19.40;18.40;;;32.90;83.10;;;;;;4921079;29;20447;-75
2023/06/21 15:02:02;;;;;;;21.73;20.27;;;32.70;83.20;;;;;;4916204;29;20458;-76
2023/06/21 15:04:28;;;;;;;21.07;19.77;;;32.70;82.70;;;;;;4916196;29;20494;-75
2023/06/21 15:06:55;;;;;;;20.33;19.03;;;32.60;82.50;;;;;;4916215;29;20826;-75
2023/06/21 15:09:23;;;;;;;19.50;18.27;;;31.60;85.20;;;;;;4916193;29;20454;-75
2023/06/21 15:11:50;;;;;;;21.33;19.93;;;31.00;87.90;;;;;;4915783;29;20473;-75
2023/06/21 15:14:17;;;;;;;21.97;20.57;;;30.70;89.70;;;;;;4913771;29;20480;-75
2023/06/21 15:16:45;;;;;;;20.63;19.20;;;30.80;90.50;;;;;;4915611;29;20494;-76
2023/06/21 15:19:13;;;;;;;20.60;19.57;;;30.80;90.10;;;;;;4915618;29;20830;-75
2023/06/21 15:21:40;;;;;;;20.80;19.50;;;30.40;90.70;;;;;;4915832;29;20465;-76
2023/06/21 15:24:07;;;;;;;19.07;18.03;;;30.00;92.10;;;;;;4915648;29;20490;-76
2023/06/21 15:26:35;;;;;;;19.70;18.70;;;29.80;93.00;;;;;;4915486;29;20454;-75
2023/06/21 15:29:06;;;;;;;20.27;19.03;;;29.90;93.30;;;;;;4915452;29;20815;-75
2023/06/21 15:31:33;;;;;;;20.20;18.77;;;30.10;92.50;;;;;;4915426;29;20462;-76
2023/06/21 15:34:00;;;;;;;27.30;25.30;;;29.90;92.70;;;;;;4915344;29;20457;-75
2023/06/21 15:36:27;;;;;;;20.57;19.30;;;29.50;93.70;;;;;;4915252;29;20470;-75
2023/06/21 15:38:53;;;;;;;21.07;19.80;;;29.50;94.10;;;;;;4915665;29;20462;-76
2023/06/21 15:41:20;;;;;;;19.77;18.27;;;29.40;94.20;;;;;;4915077;29;20933;-75
2023/06/21 15:43:48;;;;;;;19.80;18.60;;;29.20;94.20;;;;;;4915119;29;20458;-75
2023/06/21 15:46:17;;;;;;;20.07;18.97;;;28.90;94.90;;;;;;4915134;29;20501;-75